< < Back
Terminal Aerodrome Forecast


Current Version              Previous Versions:   1  2  3  4  5  6  7  8  9  

Terminal Aerodrome Forecast

302
FTUS42 KTAE 231100 AAA
TAFDHN
TAF AMD
KDHN 231158Z 2312/2412 32004KT 3SM BR SCT007 SCT100
      TEMPO 2312/2313 1/2SM FG
     FM231300 35006KT P6SM SCT040=



Latest METAR

210
SAUS70 KWBC 231400 RRA
MTRDHN
METAR KDHN 231353Z 00000KT 9SM CLR 20/17 A3000 RMK AO2 SLP153
T02000172


USA.gov is the U.S. government's official web portal to all federal, state and local government web resources and services.